Time;durP1;ratioP1;P1;durP2;ratioP2;P2;SDS_P1;SDS_P2;PMS_P1;PMS_P2;Temp;Humidity;BMP_temperature;BMP_pressure;BME280_temperature;BME280_humidity;BME280_pressure;Samples;Min_cycle;Max_cycle;Signal;HPM_P1;HPM_P2
2023/12/30 00:00:04;;;;;;;6.93;2.05;;;;;;;9.50;100.00;100873.72;5285349;28;20032;-84
2023/12/30 00:02:36;;;;;;;11.07;2.25;;;;;;;9.37;100.00;100868.66;5286102;28;20063;-83
2023/12/30 00:05:08;;;;;;;11.52;3.03;;;;;;;9.38;100.00;100867.69;5274914;28;20044;-84
2023/12/30 00:07:40;;;;;;;8.98;2.10;;;;;;;9.31;100.00;100866.50;5284038;28;20024;-83
2023/12/30 00:10:12;;;;;;;6.25;2.20;;;;;;;9.24;100.00;100871.41;5284983;28;20032;-83
2023/12/30 00:12:44;;;;;;;8.05;1.92;;;;;;;9.25;100.00;100872.22;5280100;28;20553;-83
2023/12/30 00:15:16;;;;;;;10.30;2.67;;;;;;;9.29;100.00;100884.13;5280980;28;20040;-83
2023/12/30 00:17:48;;;;;;;9.82;2.10;;;;;;;9.26;100.00;100885.16;5281287;28;20047;-83
2023/12/30 00:20:20;;;;;;;9.45;2.60;;;;;;;9.19;100.00;100878.75;5284129;28;20037;-83
2023/12/30 00:22:52;;;;;;;9.02;2.00;;;;;;;9.20;100.00;100890.03;5286402;28;20028;-83
2023/12/30 00:25:24;;;;;;;10.45;2.40;;;;;;;9.22;100.00;100894.22;5283122;28;20153;-83
2023/12/30 00:27:56;;;;;;;8.82;2.00;;;;;;;9.20;100.00;100905.72;5284301;28;20026;-83
2023/12/30 00:30:28;;;;;;;9.20;1.70;;;;;;;9.22;100.00;100907.28;5283038;28;20299;-83
2023/12/30 00:32:59;;;;;;;8.82;2.00;;;;;;;9.17;100.00;100916.44;5280212;28;20443;-83
2023/12/30 00:35:32;;;;;;;9.90;2.10;;;;;;;9.18;100.00;100912.88;5281814;28;20042;-83
2023/12/30 00:38:04;;;;;;;7.50;1.95;;;;;;;9.19;100.00;100915.34;5284533;28;20043;-83
2023/12/30 00:40:37;;;;;;;8.30;1.60;;;;;;;9.21;100.00;100923.91;5281590;28;20048;-84
2023/12/30 00:43:09;;;;;;;7.15;2.13;;;;;;;9.17;100.00;100906.00;5283923;28;20460;-84
2023/12/30 00:45:41;;;;;;;8.15;2.17;;;;;;;9.15;100.00;100915.72;5286855;28;20032;-83
2023/12/30 00:48:13;;;;;;;10.23;1.98;;;;;;;9.17;100.00;100919.88;5280887;28;20020;-84
2023/12/30 00:50:45;;;;;;;9.45;1.80;;;;;;;9.12;100.00;100911.56;5282101;28;20028;-83
2023/12/30 00:53:17;;;;;;;10.32;2.65;;;;;;;9.17;100.00;100921.66;5270964;28;20040;-83
2023/12/30 00:55:49;;;;;;;7.47;1.85;;;;;;;9.16;100.00;100920.00;5262605;28;20223;-83
2023/12/30 00:58:21;;;;;;;5.63;1.67;;;;;;;9.23;100.00;100932.47;5281159;28;20032;-83
2023/12/30 01:00:53;;;;;;;6.35;1.83;;;;;;;9.19;100.00;100928.44;5280867;28;20044;-83
2023/12/30 01:03:26;;;;;;;8.60;1.55;;;;;;;9.23;100.00;100942.09;5281578;28;20028;-83
2023/12/30 01:05:58;;;;;;;7.80;2.28;;;;;;;9.26;100.00;100939.25;5281679;28;20033;-83
2023/12/30 01:08:30;;;;;;;9.23;2.20;;;;;;;9.17;100.00;100934.75;5282016;28;20032;-83
2023/12/30 01:11:03;;;;;;;7.30;1.88;;;;;;;9.30;100.00;100948.50;5280752;28;20046;-83
2023/12/30 01:13:34;;;;;;;8.43;2.00;;;;;;;9.29;100.00;100936.41;5279960;28;20446;-83
2023/12/30 01:16:07;;;;;;;12.40;2.47;;;;;;;9.20;100.00;100937.09;5275306;28;20040;-83
2023/12/30 01:18:40;;;;;;;8.63;1.77;;;;;;;9.26;100.00;100941.84;5278818;28;20037;-83
2023/12/30 01:21:11;;;;;;;9.23;1.95;;;;;;;9.31;100.00;100939.72;5282368;28;20265;-83
2023/12/30 01:23:43;;;;;;;9.63;2.03;;;;;;;9.30;100.00;100953.75;5282906;28;20495;-83
2023/12/30 01:26:15;;;;;;;8.32;2.28;;;;;;;9.26;100.00;100952.31;5283897;28;20047;-83
2023/12/30 01:28:47;;;;;;;11.93;2.30;;;;;;;9.31;100.00;100963.25;5283817;28;20032;-83
2023/12/30 01:31:19;;;;;;;10.80;2.28;;;;;;;9.31;100.00;100970.25;5283648;28;20054;-83
2023/12/30 01:33:51;;;;;;;10.90;3.25;;;;;;;9.31;100.00;100973.69;5268471;28;20487;-83
2023/12/30 01:36:23;;;;;;;10.98;2.80;;;;;;;9.32;100.00;100979.75;5284132;28;20024;-83
2023/12/30 01:38:55;;;;;;;8.73;2.00;;;;;;;9.29;100.00;100975.63;5268325;28;20055;-83
2023/12/30 01:41:26;;;;;;;12.93;2.40;;;;;;;9.29;100.00;100980.84;5278967;28;20482;-83
2023/12/30 01:43:58;;;;;;;11.10;2.03;;;;;;;9.23;100.00;100979.53;5284276;28;20428;-83
2023/12/30 01:46:32;;;;;;;10.82;2.85;;;;;;;9.26;100.00;100978.47;5280600;28;20031;-83
2023/12/30 01:49:04;;;;;;;10.60;2.58;;;;;;;9.31;100.00;100970.25;5282679;28;20028;-83
2023/12/30 01:51:36;;;;;;;7.53;2.75;;;;;;;9.34;100.00;100985.72;5279951;28;20047;-83
2023/12/30 01:54:09;;;;;;;9.07;2.70;;;;;;;9.32;100.00;100975.38;5280048;28;20371;-83
2023/12/30 01:56:41;;;;;;;11.68;2.85;;;;;;;9.33;100.00;100978.81;5273191;28;20048;-83
2023/12/30 01:59:15;;;;;;;10.73;2.47;;;;;;;9.31;100.00;100984.16;5281314;28;20028;-83
2023/12/30 02:01:47;;;;;;;10.18;2.25;;;;;;;9.28;100.00;100984.41;5283630;28;20043;-83
2023/12/30 02:04:19;;;;;;;13.73;3.20;;;;;;;9.26;100.00;100989.75;5278581;28;20036;-84
2023/12/30 02:06:51;;;;;;;11.93;2.60;;;;;;;9.22;100.00;100984.88;5278484;28;20035;-83
2023/12/30 02:09:22;;;;;;;8.48;2.53;;;;;;;9.24;100.00;100998.66;5280828;28;20394;-83
2023/12/30 02:11:54;;;;;;;10.60;2.20;;;;;;;9.17;100.00;100982.63;5278961;28;20268;-83
2023/12/30 02:14:29;;;;;;;15.23;4.18;;;;;;;9.26;100.00;100994.97;5278647;28;20035;-84
2023/12/30 02:17:01;;;;;;;7.85;2.03;;;;;;;9.26;100.00;100992.34;5282786;28;20035;-83
2023/12/30 02:19:33;;;;;;;7.68;2.10;;;;;;;9.31;100.00;100996.41;5282100;28;20036;-83
2023/12/30 02:22:05;;;;;;;10.32;2.63;;;;;;;9.25;100.00;100989.88;5280731;28;20028;-83
2023/12/30 02:24:37;;;;;;;13.07;2.20;;;;;;;9.30;100.00;100995.56;5278853;28;20202;-83
2023/12/30 02:27:09;;;;;;;7.95;2.10;;;;;;;9.40;100.00;101006.16;5279442;28;20374;-83
2023/12/30 02:29:41;;;;;;;9.48;2.53;;;;;;;9.27;100.00;101008.88;5278800;28;20028;-84
2023/12/30 02:32:13;;;;;;;9.40;2.35;;;;;;;9.14;100.00;101029.91;5281355;28;20440;-83
2023/12/30 02:34:45;;;;;;;6.47;2.05;;;;;;;9.06;100.00;101024.44;5280469;28;20442;-83
2023/12/30 02:37:17;;;;;;;5.15;1.92;;;;;;;8.90;100.00;101024.75;5277494;28;20200;-83
2023/12/30 02:39:48;;;;;;;4.93;1.85;;;;;;;8.92;100.00;101009.78;5278306;28;20024;-83
2023/12/30 02:42:20;;;;;;;7.70;2.05;;;;;;;8.93;100.00;101032.34;5276959;28;20032;-83
2023/12/30 02:44:52;;;;;;;7.53;2.25;;;;;;;8.92;100.00;101020.22;5280842;28;20023;-84
2023/12/30 02:47:24;;;;;;;7.10;2.08;;;;;;;8.93;100.00;101021.06;5280600;28;20029;-83
2023/12/30 02:49:56;;;;;;;12.48;2.97;;;;;;;8.92;100.00;101030.69;5282023;28;20418;-83
2023/12/30 02:52:30;;;;;;;13.23;2.63;;;;;;;8.90;100.00;101016.91;5276204;28;20053;-83
2023/12/30 02:55:04;;;;;;;10.15;2.17;;;;;;;8.91;100.00;101030.81;5288494;28;20112;-83
2023/12/30 02:57:37;;;;;;;10.50;2.33;;;;;;;8.92;100.00;101033.28;5284988;28;20043;-83
2023/12/30 03:00:10;;;;;;;14.00;3.17;;;;;;;8.86;100.00;101020.66;5287688;28;20111;-83
2023/12/30 03:02:41;;;;;;;12.37;2.80;;;;;;;8.85;100.00;101023.41;5289679;28;20032;-83
2023/12/30 03:05:13;;;;;;;11.00;2.10;;;;;;;8.88;100.00;101038.88;5290537;28;20032;-83
2023/12/30 03:07:46;;;;;;;14.02;2.75;;;;;;;8.74;100.00;101029.44;5286877;28;20036;-83
2023/12/30 03:10:18;;;;;;;11.02;2.47;;;;;;;8.77;100.00;101034.44;5286924;28;20071;-83
2023/12/30 03:12:50;;;;;;;11.85;2.85;;;;;;;8.76;100.00;101046.66;5279122;28;20044;-83
2023/12/30 03:15:23;;;;;;;13.95;2.85;;;;;;;8.67;100.00;101028.22;5289752;28;20031;-83
2023/12/30 03:17:55;;;;;;;13.57;2.67;;;;;;;8.67;100.00;101036.03;5290809;28;20036;-83
2023/12/30 03:20:28;;;;;;;16.02;2.88;;;;;;;8.74;100.00;101045.09;5290876;28;20046;-83
2023/12/30 03:23:00;;;;;;;9.55;2.40;;;;;;;8.70;100.00;101048.88;5285922;28;20039;-83
2023/12/30 03:25:33;;;;;;;13.80;2.40;;;;;;;8.64;100.00;101028.47;5274401;28;20040;-83
2023/12/30 03:28:05;;;;;;;9.68;2.45;;;;;;;8.66;100.00;101034.38;5290020;28;20079;-83
2023/12/30 03:30:45;;;;;;;11.68;2.38;;;;;;;8.72;100.00;101036.56;5287789;28;20499;-83
2023/12/30 03:33:17;;;;;;;10.23;2.25;;;;;;;8.63;100.00;101040.66;5270662;28;20036;-83
2023/12/30 03:35:49;;;;;;;10.05;2.10;;;;;;;8.62;100.00;101028.56;5271186;28;20460;-83
2023/12/30 03:38:21;;;;;;;11.43;2.70;;;;;;;8.66;100.00;101039.63;5286007;28;20024;-83
2023/12/30 03:40:53;;;;;;;9.70;2.55;;;;;;;8.66;100.00;101037.00;5274664;28;20067;-83
2023/12/30 03:43:25;;;;;;;11.23;2.75;;;;;;;8.65;100.00;101033.56;5282865;28;20047;-83
2023/12/30 03:45:57;;;;;;;10.10;2.08;;;;;;;8.56;100.00;101031.63;5283725;28;20048;-83
2023/12/30 03:48:29;;;;;;;12.43;3.00;;;;;;;8.44;100.00;101035.94;5285878;28;20012;-83
2023/12/30 03:51:01;;;;;;;16.42;2.95;;;;;;;8.47;100.00;101038.34;5273643;28;20697;-83
2023/12/30 03:53:33;;;;;;;9.27;1.85;;;;;;;8.40;100.00;101028.47;5288501;28;20028;-83
2023/12/30 03:56:05;;;;;;;12.57;2.13;;;;;;;8.49;100.00;101049.53;5267152;28;20399;-83
2023/12/30 03:58:37;;;;;;;10.60;2.63;;;;;;;8.52;100.00;101054.53;5288490;28;20039;-83
2023/12/30 04:01:10;;;;;;;11.10;2.95;;;;;;;8.49;100.00;101046.91;5284024;28;20504;-83
2023/12/30 04:03:42;;;;;;;16.20;2.83;;;;;;;8.43;100.00;101034.28;5286540;28;20039;-83
2023/12/30 04:06:20;;;;;;;10.60;2.15;;;;;;;8.55;100.00;101047.41;5287451;28;20032;-83
2023/12/30 04:08:52;;;;;;;19.95;2.85;;;;;;;8.41;100.00;101043.16;5285762;28;20040;-83
2023/12/30 04:11:24;;;;;;;15.27;2.65;;;;;;;8.38;100.00;101039.03;5276404;28;20303;-83
2023/12/30 04:13:56;;;;;;;12.38;2.80;;;;;;;8.41;100.00;101045.78;5284910;28;20393;-83
2023/12/30 04:16:28;;;;;;;10.98;2.50;;;;;;;8.35;100.00;101048.81;5286990;28;20030;-83
2023/12/30 04:19:00;;;;;;;9.27;2.13;;;;;;;8.29;100.00;101037.84;5286093;28;20024;-83
2023/12/30 04:21:32;;;;;;;14.88;2.45;;;;;;;8.31;100.00;101045.59;5286611;28;20028;-83
2023/12/30 04:24:04;;;;;;;8.93;2.15;;;;;;;8.21;100.00;101026.31;5286197;28;20113;-83
2023/12/30 04:26:36;;;;;;;15.90;3.38;;;;;;;8.19;100.00;101031.66;5283206;28;20039;-83
2023/12/30 04:29:08;;;;;;;9.98;2.38;;;;;;;8.27;100.00;101047.59;5287145;28;20397;-83
2023/12/30 04:31:39;;;;;;;13.52;2.72;;;;;;;8.17;100.00;101024.88;5286729;28;20046;-83
2023/12/30 04:34:11;;;;;;;12.52;2.67;;;;;;;8.28;100.00;101048.44;5283739;28;20028;-83
2023/12/30 04:36:43;;;;;;;13.13;2.30;;;;;;;8.27;100.00;101049.38;5284349;28;20036;-83
2023/12/30 04:39:15;;;;;;;7.40;2.00;;;;;;;8.20;100.00;101046.38;5284255;28;20032;-83
2023/12/30 04:41:47;;;;;;;9.00;2.20;;;;;;;8.20;100.00;101050.75;5287584;28;20035;-82
2023/12/30 04:44:19;;;;;;;10.73;2.30;;;;;;;8.09;100.00;101035.03;5287738;28;20035;-83
2023/12/30 04:46:51;;;;;;;11.60;2.25;;;;;;;8.14;100.00;101038.13;5295473;28;20123;-83
2023/12/30 04:49:23;;;;;;;11.05;1.90;;;;;;;8.12;100.00;101038.25;5295061;28;20039;-83
2023/12/30 04:51:55;;;;;;;12.45;2.60;;;;;;;8.04;100.00;101028.38;5294419;28;20031;-83
2023/12/30 04:54:27;;;;;;;14.18;3.03;;;;;;;8.09;100.00;101042.84;5292281;28;20036;-83
2023/12/30 04:56:59;;;;;;;11.27;2.60;;;;;;;8.15;100.00;101051.09;5283662;28;20048;-83
2023/12/30 04:59:30;;;;;;;10.38;2.30;;;;;;;8.10;100.00;101057.56;5289308;28;20123;-83
2023/12/30 05:02:03;;;;;;;11.38;2.00;;;;;;;8.12;100.00;101059.13;5290927;28;20032;-83
2023/12/30 05:04:35;;;;;;;14.02;2.67;;;;;;;8.15;100.00;101081.56;5290393;28;20024;-83
2023/12/30 05:07:06;;;;;;;15.43;2.95;;;;;;;8.10;100.00;101066.22;5283353;28;20049;-83
2023/12/30 05:09:38;;;;;;;8.90;2.58;;;;;;;8.15;100.00;101082.41;5290193;28;20474;-83
2023/12/30 05:12:10;;;;;;;13.18;2.75;;;;;;;8.12;100.00;101077.41;5290830;28;20028;-83
2023/12/30 05:14:42;;;;;;;10.35;2.40;;;;;;;8.17;100.00;101079.66;5290636;28;20032;-83
2023/12/30 05:17:14;;;;;;;14.80;2.70;;;;;;;8.19;100.00;101077.81;5276379;28;20338;-83
2023/12/30 05:19:46;;;;;;;10.70;2.40;;;;;;;8.16;100.00;101086.69;5290427;28;20032;-83
2023/12/30 05:22:18;;;;;;;11.15;2.95;;;;;;;8.13;100.00;101086.06;5294047;28;20544;-83
2023/12/30 05:24:50;;;;;;;14.10;2.75;;;;;;;8.13;100.00;101080.84;5290053;28;20029;-83
2023/12/30 05:27:22;;;;;;;15.68;3.08;;;;;;;8.16;100.00;101091.06;5290074;28;20027;-83
2023/12/30 05:29:53;;;;;;;11.90;2.38;;;;;;;8.10;100.00;101094.09;5290170;28;20315;-83
2023/12/30 05:32:25;;;;;;;14.00;2.90;;;;;;;8.15;100.00;101084.19;5294800;28;20028;-83
2023/12/30 05:34:57;;;;;;;16.92;2.58;;;;;;;8.21;100.00;101096.78;5290689;28;20036;-83
2023/12/30 05:37:29;;;;;;;19.13;3.25;;;;;;;8.12;100.00;101085.22;5291759;28;20036;-83
2023/12/30 05:40:02;;;;;;;14.95;3.08;;;;;;;8.10;100.00;101094.09;5289357;28;20034;-83
2023/12/30 05:42:34;;;;;;;15.20;3.05;;;;;;;8.03;100.00;101086.72;5288006;28;20040;-83
2023/12/30 05:45:07;;;;;;;16.30;4.25;;;;;;;8.01;100.00;101092.97;5289377;28;20091;-83
2023/12/30 05:47:39;;;;;;;13.37;2.70;;;;;;;8.07;100.00;101096.91;5286086;28;20377;-83
2023/12/30 05:50:14;;;;;;;13.90;2.53;;;;;;;8.14;100.00;101104.19;5277348;28;20032;-82
2023/12/30 05:52:45;;;;;;;11.05;2.60;;;;;;;8.04;100.00;101100.59;5284459;28;20028;-82
2023/12/30 05:55:17;;;;;;;12.02;2.50;;;;;;;8.05;100.00;101110.91;5283359;28;20063;-82
2023/12/30 05:57:49;;;;;;;12.10;2.58;;;;;;;7.98;100.00;101088.78;5282035;28;20028;-82
2023/12/30 06:00:21;;;;;;;8.82;2.58;;;;;;;8.05;100.00;101110.06;5282939;28;20496;-82
2023/12/30 06:02:53;;;;;;;12.98;2.75;;;;;;;8.00;100.00;101110.41;5275034;28;20056;-83
2023/12/30 06:05:25;;;;;;;12.65;2.40;;;;;;;8.04;100.00;101111.84;5276111;28;20061;-82
2023/12/30 06:07:57;;;;;;;13.18;3.10;;;;;;;8.05;100.00;101112.69;5284993;28;20722;-82
2023/12/30 06:10:29;;;;;;;12.45;2.63;;;;;;;7.99;100.00;101105.28;5282035;28;20020;-82
2023/12/30 06:13:01;;;;;;;11.77;2.65;;;;;;;8.01;100.00;101122.50;5282650;28;20039;-82
2023/12/30 06:15:33;;;;;;;13.52;2.88;;;;;;;8.00;100.00;101120.84;5281292;28;20032;-82
2023/12/30 06:18:05;;;;;;;12.82;2.90;;;;;;;8.02;100.00;101120.72;5284017;28;20401;-82
2023/12/30 06:20:37;;;;;;;11.02;2.70;;;;;;;8.02;100.00;101120.72;5283143;28;20044;-82
2023/12/30 06:23:09;;;;;;;10.27;2.70;;;;;;;7.91;100.00;101104.97;5271154;28;20055;-83
2023/12/30 06:25:41;;;;;;;8.98;2.25;;;;;;;8.01;100.00;101126.91;5282389;28;20059;-83
2023/12/30 06:28:14;;;;;;;9.60;2.27;;;;;;;8.01;100.00;101135.56;5286973;28;20033;-83
2023/12/30 06:30:46;;;;;;;8.43;2.30;;;;;;;7.96;100.00;101144.66;5291330;28;20288;-83
2023/12/30 06:33:20;;;;;;;13.95;2.90;;;;;;;7.98;100.00;101140.97;5292300;28;20036;-83
2023/12/30 06:35:52;;;;;;;10.13;2.50;;;;;;;7.88;100.00;101136.50;5291118;28;20492;-83
2023/12/30 06:38:24;;;;;;;11.68;3.08;;;;;;;7.92;100.00;101141.41;5292811;28;20028;-83
2023/12/30 06:40:57;;;;;;;12.75;2.85;;;;;;;7.89;100.00;101140.78;5288861;28;20032;-83
2023/12/30 06:43:28;;;;;;;12.00;2.75;;;;;;;7.93;100.00;101144.84;5289684;28;20059;-83
2023/12/30 06:46:03;;;;;;;15.70;2.30;;;;;;;7.87;100.00;101137.44;5292991;28;20767;-83
2023/12/30 06:48:35;;;;;;;11.55;2.25;;;;;;;7.84;100.00;101133.28;5290737;28;20401;-83
2023/12/30 06:51:10;;;;;;;16.00;2.53;;;;;;;7.93;100.00;101147.47;5294252;28;20033;-83
2023/12/30 06:53:42;;;;;;;12.38;2.65;;;;;;;7.85;100.00;101134.94;5293560;28;20370;-83
2023/12/30 06:56:15;;;;;;;13.45;3.30;;;;;;;7.88;100.00;101129.53;5292441;28;20050;-83
2023/12/30 06:58:46;;;;;;;12.23;3.10;;;;;;;7.92;100.00;101133.59;5292211;28;20035;-83
2023/12/30 07:01:20;;;;;;;11.52;2.45;;;;;;;7.95;100.00;101132.53;5291305;28;20035;-83
2023/12/30 07:03:52;;;;;;;8.95;2.40;;;;;;;7.90;100.00;101122.41;5291522;28;20025;-83
2023/12/30 07:06:24;;;;;;;17.13;2.97;;;;;;;7.93;100.00;101137.84;5290944;28;20032;-83
2023/12/30 07:08:56;;;;;;;12.27;2.72;;;;;;;7.93;100.00;101135.25;5293090;28;20031;-83
2023/12/30 07:11:29;;;;;;;10.15;2.88;;;;;;;7.95;100.00;101138.56;5288995;28;20036;-83
2023/12/30 07:14:01;;;;;;;12.60;2.70;;;;;;;7.95;100.00;101135.97;5288697;28;20028;-83
2023/12/30 07:16:33;;;;;;;12.82;2.45;;;;;;;7.96;100.00;101142.88;5286753;28;20293;-82
2023/12/30 07:19:04;;;;;;;16.02;2.72;;;;;;;8.02;100.00;101152.88;5283273;28;20024;-82
2023/12/30 07:21:36;;;;;;;16.70;2.60;;;;;;;8.00;100.00;101154.75;5284172;28;20039;-82
2023/12/30 07:24:08;;;;;;;11.63;3.03;;;;;;;7.95;100.00;101143.78;5285055;28;20040;-83
2023/12/30 07:26:40;;;;;;;12.30;2.95;;;;;;;7.95;100.00;101151.63;5284169;28;20485;-82
2023/12/30 07:29:12;;;;;;;10.82;2.38;;;;;;;7.87;100.00;101140.88;5283060;28;20024;-82
2023/12/30 07:31:44;;;;;;;15.82;3.40;;;;;;;7.90;100.00;101145.88;5283820;28;20024;-83
2023/12/30 07:34:17;;;;;;;13.77;3.03;;;;;;;7.84;100.00;101133.28;5282664;28;20024;-82
2023/12/30 07:36:50;;;;;;;7.18;2.40;;;;;;;7.95;100.00;101161.22;5284830;28;20032;-82
2023/12/30 07:39:22;;;;;;;10.70;2.17;;;;;;;7.91;100.00;101144.94;5281513;28;20039;-81
2023/12/30 07:41:54;;;;;;;9.18;2.75;;;;;;;7.91;100.00;101150.16;5285572;28;20032;-83
2023/12/30 07:44:30;;;;;;;11.10;2.22;;;;;;;7.89;100.00;101152.06;5283045;28;20036;-83
2023/12/30 07:47:02;;;;;;;13.73;2.50;;;;;;;7.88;100.00;101149.53;5283324;28;20028;-83
2023/12/30 07:49:34;;;;;;;10.25;2.17;;;;;;;7.90;100.00;101148.50;5285195;28;20032;-83
2023/12/30 07:52:05;;;;;;;12.30;2.60;;;;;;;7.95;100.00;101156.84;5290137;28;20042;-83
2023/12/30 07:54:38;;;;;;;12.23;2.90;;;;;;;7.87;100.00;101153.09;5293526;28;20032;-83
2023/12/30 07:57:09;;;;;;;14.50;2.75;;;;;;;7.82;100.00;101145.59;5288936;28;20036;-82
2023/12/30 07:59:41;;;;;;;13.65;2.15;;;;;;;7.94;100.00;101173.44;5276807;28;20036;-82
2023/12/30 08:02:13;;;;;;;11.52;2.45;;;;;;;7.98;100.00;101182.72;5286995;28;20036;-82
2023/12/30 08:04:45;;;;;;;12.10;2.35;;;;;;;7.98;100.00;101190.53;5291126;28;20028;-83
2023/12/30 08:07:17;;;;;;;9.82;2.65;;;;;;;7.96;100.00;101184.63;5291543;28;20195;-82
2023/12/30 08:09:49;;;;;;;9.27;2.42;;;;;;;7.99;100.00;101194.84;5271835;28;20044;-83
2023/12/30 08:12:21;;;;;;;14.68;3.08;;;;;;;7.94;100.00;101185.66;5283529;28;20032;-83
2023/12/30 08:14:54;;;;;;;13.32;2.53;;;;;;;8.01;100.00;101187.72;5281995;28;20458;-83
2023/12/30 08:17:25;;;;;;;13.93;2.30;;;;;;;8.08;100.00;101198.59;5280696;28;20409;-83
2023/12/30 08:19:57;;;;;;;10.93;2.30;;;;;;;8.05;100.00;101194.41;5283245;28;20032;-83
2023/12/30 08:22:29;;;;;;;12.30;2.47;;;;;;;8.05;100.00;101188.34;5282605;28;20036;-83
2023/12/30 08:25:02;;;;;;;14.07;2.47;;;;;;;8.10;100.00;101190.66;5284537;28;20043;-83
2023/12/30 08:27:35;;;;;;;17.23;2.97;;;;;;;8.12;100.00;101192.22;5280644;28;20672;-83
2023/12/30 08:30:07;;;;;;;13.93;2.70;;;;;;;8.19;100.00;101206.53;5282075;28;20033;-83
2023/12/30 08:32:39;;;;;;;10.57;3.23;;;;;;;8.28;100.00;101197.22;5273619;28;20056;-83
2023/12/30 08:35:11;;;;;;;17.17;3.40;;;;;;;8.21;100.00;101185.53;5283974;28;20032;-83
2023/12/30 08:37:44;;;;;;;15.15;4.05;;;;;;;8.31;100.00;101194.38;5279483;28;20591;-83
2023/12/30 08:40:16;;;;;;;11.73;3.10;;;;;;;8.38;100.00;101198.28;5283820;28;20036;-83
2023/12/30 08:42:49;;;;;;;11.43;2.70;;;;;;;8.39;100.00;101194.72;5271697;28;20066;-83
2023/12/30 08:45:22;;;;;;;15.15;3.05;;;;;;;8.41;100.00;101185.00;5281017;28;20199;-83
2023/12/30 08:47:54;;;;;;;11.45;2.90;;;;;;;8.49;100.00;101193.13;5279434;28;20031;-83
2023/12/30 08:50:27;;;;;;;12.52;2.92;;;;;;;8.49;100.00;101197.53;5282093;28;20032;-83
2023/12/30 08:52:58;;;;;;;14.70;2.70;;;;;;;8.49;100.00;101195.75;5283421;28;20042;-83
2023/12/30 08:55:31;;;;;;;13.32;3.33;;;;;;;8.51;100.00;101204.28;5279317;28;20048;-83
2023/12/30 08:58:03;;;;;;;12.25;2.65;;;;;;;8.57;100.00;101203.03;5280229;28;20383;-83
2023/12/30 09:00:35;;;;;;;15.35;3.70;;;;;;;8.57;100.00;101205.66;5281589;28;20037;-83
2023/12/30 09:03:07;;;;;;;21.98;4.07;;;;;;;8.61;100.00;101201.06;5282691;28;20040;-83
2023/12/30 09:05:39;;;;;;;14.20;3.20;;;;;;;8.67;100.00;101200.59;5283136;28;20040;-83
2023/12/30 09:08:12;;;;;;;15.45;3.17;;;;;;;8.72;100.00;101209.78;5263971;28;20028;-84
2023/12/30 09:10:44;;;;;;;13.48;3.13;;;;;;;8.70;100.00;101201.22;5282437;28;20723;-83
2023/12/30 09:13:16;;;;;;;18.00;3.65;;;;;;;8.77;100.00;101210.28;5280444;28;20031;-83
2023/12/30 09:15:48;;;;;;;14.73;3.33;;;;;;;8.77;100.00;101212.06;5281508;28;20039;-83
2023/12/30 09:18:20;;;;;;;14.65;3.00;;;;;;;8.82;100.00;101217.78;5269198;28;20044;-84
2023/12/30 09:20:52;;;;;;;10.13;2.65;;;;;;;8.85;100.00;101225.41;5283679;28;20028;-83
2023/12/30 09:23:24;;;;;;;16.70;3.90;;;;;;;8.86;100.00;101229.69;5280460;28;20105;-83
2023/12/30 09:25:56;;;;;;;9.75;2.58;;;;;;;8.90;100.00;101214.63;5278838;28;20040;-83
2023/12/30 09:28:28;;;;;;;16.67;3.47;;;;;;;8.89;100.00;101226.03;5281008;28;20399;-83
2023/12/30 09:31:00;;;;;;;10.90;3.15;;;;;;;8.89;100.00;101224.25;5283798;28;20024;-83
2023/12/30 09:33:32;;;;;;;16.17;3.42;;;;;;;8.97;100.00;101234.16;5280817;28;20044;-83
2023/12/30 09:36:05;;;;;;;12.70;3.17;;;;;;;8.95;100.00;101231.66;5282913;28;20035;-83
2023/12/30 09:38:37;;;;;;;13.68;3.85;;;;;;;9.01;100.00;101227.75;5282080;28;20032;-84
2023/12/30 09:41:09;;;;;;;15.60;3.85;;;;;;;9.09;100.00;101241.13;5278913;28;20042;-83
2023/12/30 09:43:42;;;;;;;12.55;4.07;;;;;;;9.12;100.00;101238.28;5281945;28;20111;-83
2023/12/30 09:46:16;;;;;;;14.57;4.78;;;;;;;9.14;100.00;101232.94;5280058;28;20398;-83
2023/12/30 09:48:49;;;;;;;;;;;;;;;9.70;100.00;101239.25;5279265;28;20389;-84
2023/12/30 09:51:21;;;;;;;13.57;4.03;;;;;;;9.30;100.00;101251.78;5280027;28;19917;-83
2023/12/30 09:53:53;;;;;;;19.37;4.93;;;;;;;9.24;100.00;101247.00;5271809;28;20040;-84
2023/12/30 09:56:26;;;;;;;17.77;4.60;;;;;;;9.19;100.00;101229.03;5279275;28;20135;-84
2023/12/30 09:58:59;;;;;;;17.15;4.82;;;;;;;9.31;100.00;101226.47;5282931;28;20394;-83
2023/12/30 10:01:31;;;;;;;14.90;4.82;;;;;;;9.32;100.00;101225.53;5282084;28;20052;-84
2023/12/30 10:04:03;;;;;;;11.32;4.05;;;;;;;9.32;100.00;101226.38;5284353;28;20477;-83
2023/12/30 10:06:37;;;;;;;17.63;4.85;;;;;;;9.37;100.00;101232.09;5284859;28;20048;-83
2023/12/30 10:09:09;;;;;;;15.15;4.90;;;;;;;9.33;100.00;101227.22;5284093;28;20032;-83
2023/12/30 10:11:44;;;;;;;16.63;5.20;;;;;;;9.44;100.00;101230.72;5284729;28;20610;-84
2023/12/30 10:14:16;;;;;;;13.32;4.43;;;;;;;9.47;100.00;101230.47;5287883;28;20039;-84
2023/12/30 10:16:48;;;;;;;15.43;4.72;;;;;;;9.50;100.00;101232.03;5289101;28;20031;-84
2023/12/30 10:19:20;;;;;;;16.45;4.40;;;;;;;9.54;100.00;101246.53;5276175;28;20047;-83
2023/12/30 10:21:52;;;;;;;15.75;4.80;;;;;;;9.54;100.00;101237.84;5284447;28;20428;-83
2023/12/30 10:24:25;;;;;;;12.13;4.65;;;;;;;9.63;100.00;101247.66;5281767;28;20035;-83
2023/12/30 10:27:03;;;;;;;16.25;4.70;;;;;;;9.59;100.00;101239.19;5281495;28;20379;-83
2023/12/30 10:29:36;;;;;;;12.75;4.93;;;;;;;9.71;100.00;101256.59;5283305;28;20028;-83
2023/12/30 10:32:10;;;;;;;16.92;4.82;;;;;;;9.74;100.00;101258.16;5284638;28;20489;-84
2023/12/30 10:34:42;;;;;;;15.10;4.20;;;;;;;9.77;100.00;101257.91;5281165;28;20527;-83
2023/12/30 10:37:16;;;;;;;13.25;4.53;;;;;;;9.74;100.00;101240.66;5269990;28;20039;-86
2023/12/30 10:39:48;;;;;;;18.58;4.72;;;;;;;9.79;100.00;101258.63;5286307;28;20032;-83
2023/12/30 10:42:20;;;;;;;21.00;5.00;;;;;;;9.84;100.00;101266.13;5284572;28;20028;-83
2023/12/30 10:44:52;;;;;;;17.52;3.92;;;;;;;9.86;100.00;101253.78;5285131;28;20387;-84
2023/12/30 10:47:26;;;;;;;17.50;5.10;;;;;;;9.85;100.00;101252.09;5284225;28;20109;-83
2023/12/30 10:50:04;;;;;;;13.85;4.18;;;;;;;9.88;100.00;101249.25;5267680;28;20329;-83
2023/12/30 10:52:45;;;;;;;19.42;4.38;;;;;;;10.08;100.00;101255.63;5286048;28;20029;-83
2023/12/30 10:55:17;;;;;;;16.33;4.30;;;;;;;10.04;100.00;101251.53;5284446;28;20048;-83
2023/12/30 10:58:01;;;;;;;17.35;4.45;;;;;;;10.17;100.00;101241.81;5285646;28;20046;-83
2023/12/30 11:00:35;;;;;;;14.85;3.92;;;;;;;10.23;100.00;101244.81;5285646;28;20032;-84
2023/12/30 11:03:07;;;;;;;18.38;4.50;;;;;;;10.16;100.00;101233.13;5281229;28;20040;-84
2023/12/30 11:06:20;;;;;;;16.25;4.68;;;;;;;10.27;100.00;101213.19;5282072;28;20090;-83
2023/12/30 11:08:53;;;;;;;16.90;4.90;;;;;;;10.16;100.00;101217.41;5254140;28;20052;-83
2023/12/30 11:11:26;;;;;;;18.00;4.90;;;;;;;10.26;100.00;101229.81;5281453;28;20028;-83
2023/12/30 11:13:58;;;;;;;17.05;4.10;;;;;;;10.34;100.00;101224.81;5283162;28;20040;-83
2023/12/30 11:16:32;;;;;;;12.88;3.65;;;;;;;10.43;100.00;101227.56;5282430;28;20047;-83
2023/12/30 11:19:04;;;;;;;18.25;4.65;;;;;;;10.35;100.00;101227.34;5282346;28;20478;-83
2023/12/30 11:21:38;;;;;;;16.15;5.07;;;;;;;10.48;100.00;101219.34;5283268;28;20043;-83
2023/12/30 11:24:12;;;;;;;16.15;4.20;;;;;;;10.52;100.00;101225.19;5288838;28;20040;-83
2023/12/30 11:26:44;;;;;;;;;;;;;;;11.05;100.00;101212.19;5271341;28;20055;-83
2023/12/30 11:29:19;;;;;;;18.48;4.07;;;;;;;10.65;100.00;101216.25;5287459;28;20408;-83
2023/12/30 11:31:55;;;;;;;16.35;4.57;;;;;;;10.62;100.00;101205.16;5285248;28;20045;-83
2023/12/30 11:34:27;;;;;;;15.73;4.05;;;;;;;10.65;100.00;101211.00;5282729;28;20044;-83
2023/12/30 11:37:01;;;;;;;16.77;4.90;;;;;;;10.64;100.00;101196.22;5284116;28;20032;-83
2023/12/30 11:39:38;;;;;;;13.52;4.40;;;;;;;10.61;100.00;101201.72;5282643;28;20044;-83
2023/12/30 11:42:10;;;;;;;13.27;4.22;;;;;;;10.61;100.00;101198.28;5279827;28;20525;-83